createdAt,value
2023-01-15T00:02:07.322Z,98160.58
2023-01-15T00:17:11.558Z,98122.30
2023-01-15T00:32:16.287Z,98114.55
2023-01-15T00:47:20.363Z,98090.65
2023-01-15T01:02:26.468Z,98080.98
2023-01-15T01:17:30.606Z,98076.32
2023-01-15T01:32:35.831Z,98069.23
2023-01-15T01:47:40.240Z,98043.81
2023-01-15T02:02:46.147Z,98022.02
2023-01-15T02:18:01.915Z,97985.77
2023-01-15T02:33:12.409Z,97980.44
2023-01-15T02:48:17.130Z,97970.36
2023-01-15T03:03:23.773Z,97948.33
2023-01-15T03:18:28.452Z,97930.23
2023-01-15T03:33:34.864Z,97923.41
2023-01-15T03:48:59.848Z,97913.54
2023-01-15T04:04:06.626Z,97867.17
2023-01-15T04:19:11.839Z,97845.83
2023-01-15T04:34:23.043Z,97831.17
2023-01-15T04:49:26.868Z,97824.24
2023-01-15T05:04:31.978Z,97816.58
2023-01-15T05:19:36.337Z,97818.08
2023-01-15T05:34:41.062Z,97806.16
2023-01-15T05:49:44.955Z,97798.40
2023-01-15T06:04:50.167Z,97791.11
2023-01-15T06:19:54.152Z,97779.79
2023-01-15T06:34:59.273Z,97775.41
2023-01-15T06:50:03.073Z,97769.84
2023-01-15T07:05:08.700Z,97763.88
2023-01-15T07:20:13.838Z,97770.38
2023-01-15T07:35:18.569Z,97765.38
2023-01-15T07:50:23.002Z,97768.99
2023-01-15T08:05:27.873Z,97746.11
2023-01-15T08:20:32.171Z,97727.45
2023-01-15T08:35:37.020Z,97714.98
2023-01-15T08:50:41.054Z,97738.82
2023-01-15T09:05:45.545Z,97760.02
2023-01-15T09:20:49.422Z,97764.09
2023-01-15T09:35:54.893Z,97809.91
2023-01-15T09:51:04.949Z,97885.20
2023-01-15T10:06:11.178Z,97911.90
2023-01-15T10:21:32.790Z,97930.50
2023-01-15T10:36:38.264Z,97937.33
2023-01-15T10:51:55.227Z,97924.20
2023-01-15T11:07:01.561Z,97966.08
2023-01-15T11:22:13.331Z,97978.41
2023-01-15T11:37:17.671Z,98008.48
2023-01-15T11:52:22.315Z,98026.88
2023-01-15T12:07:27.359Z,98022.91
2023-01-15T12:22:47.913Z,98013.91
2023-01-15T12:37:54.624Z,98012.13
2023-01-15T12:53:01.601Z,98040.73
2023-01-15T13:08:07.804Z,98045.39
2023-01-15T13:23:30.489Z,98049.76
2023-01-15T13:38:39.751Z,98051.65
2023-01-15T13:53:45.570Z,98040.52
2023-01-15T14:08:52.705Z,98053.23
2023-01-15T14:23:59.861Z,98047.17
2023-01-15T14:39:04.232Z,98046.17
2023-01-15T14:54:08.728Z,98076.13
2023-01-15T15:09:14.167Z,98079.40
2023-01-15T15:24:28.464Z,98098.25
2023-01-15T15:39:43.553Z,98088.47
2023-01-15T15:54:57.398Z,98120.52
2023-01-15T16:10:10.995Z,98168.92
2023-01-15T16:25:21.859Z,98211.70
2023-01-15T16:40:28.799Z,98234.75
2023-01-15T16:55:42.908Z,98237.80
2023-01-15T17:10:57.924Z,98243.67
2023-01-15T17:26:02.344Z,98250.29
2023-01-15T17:41:08.811Z,98293.33
2023-01-15T17:56:31.147Z,98309.56
2023-01-15T18:11:35.563Z,98336.77
2023-01-15T18:26:40.020Z,98356.25
2023-01-15T18:41:45.731Z,98347.33
2023-01-15T18:56:49.758Z,98349.13
2023-01-15T19:11:54.555Z,98381.44
2023-01-15T19:26:58.585Z,98372.36
2023-01-15T19:42:21.721Z,98357.06
2023-01-15T19:57:25.725Z,98347.25
2023-01-15T20:12:49.235Z,98341.71
2023-01-15T20:27:53.267Z,98343.49
2023-01-15T20:43:16.294Z,98335.23
2023-01-15T20:58:20.548Z,98324.63
2023-01-15T21:13:25.019Z,98315.90
2023-01-15T21:28:29.559Z,98322.80
2023-01-15T21:43:51.931Z,98327.05
2023-01-15T21:58:56.067Z,98327.18
2023-01-15T22:14:00.915Z,98319.62
2023-01-15T22:29:05.018Z,98317.73
2023-01-15T22:44:10.294Z,98310.02
2023-01-15T22:59:14.334Z,98293.54
2023-01-15T23:14:19.653Z,98276.45
2023-01-15T23:29:23.579Z,98264.64
2023-01-15T23:44:47.169Z,98252.30
2023-01-15T23:59:51.103Z,98241.64
